createdAt,value
2023-03-06T00:00:57.832Z,8.90
2023-03-06T00:03:59.898Z,8.30
2023-03-06T00:07:02.015Z,8.60
2023-03-06T00:10:06.791Z,7.93
2023-03-06T00:13:12.226Z,9.27
2023-03-06T00:16:14.360Z,9.90
2023-03-06T00:19:16.271Z,9.80
2023-03-06T00:22:18.931Z,8.57
2023-03-06T00:25:22.778Z,7.07
2023-03-06T00:28:25.343Z,9.60
2023-03-06T00:31:27.541Z,9.88
2023-03-06T00:34:29.614Z,6.73
2023-03-06T00:37:31.597Z,10.00
2023-03-06T00:40:33.967Z,8.75
2023-03-06T00:43:35.901Z,10.48
2023-03-06T00:46:38.159Z,10.35
2023-03-06T00:49:40.336Z,9.47
2023-03-06T00:52:43.530Z,8.70
2023-03-06T00:55:46.063Z,8.73
2023-03-06T00:58:49.244Z,7.35
2023-03-06T01:01:51.390Z,8.05
2023-03-06T01:04:53.524Z,9.27
2023-03-06T01:07:55.723Z,11.60
2023-03-06T01:10:57.742Z,9.93
2023-03-06T01:13:59.754Z,9.80
2023-03-06T01:17:01.674Z,7.85
2023-03-06T01:20:05.110Z,9.17
2023-03-06T01:23:07.292Z,13.98
2023-03-06T01:26:10.038Z,7.90
2023-03-06T01:29:12.205Z,9.25
2023-03-06T01:32:14.295Z,6.40
2023-03-06T01:35:16.432Z,10.23
2023-03-06T01:38:18.783Z,10.10
2023-03-06T01:41:21.649Z,9.68
2023-03-06T01:44:23.806Z,8.38
2023-03-06T01:47:26.147Z,9.80
2023-03-06T01:50:28.845Z,5.53
2023-03-06T01:53:31.690Z,7.40
2023-03-06T01:56:33.938Z,7.47
2023-03-06T01:59:38.887Z,8.85
2023-03-06T02:02:44.070Z,11.73
2023-03-06T02:05:47.699Z,10.20
2023-03-06T02:08:52.401Z,9.45
2023-03-06T02:11:54.431Z,7.53
2023-03-06T02:14:56.985Z,6.53
2023-03-06T02:18:00.473Z,7.72
2023-03-06T02:21:06.207Z,7.03
2023-03-06T02:24:28.217Z,9.88
2023-03-06T02:27:31.199Z,8.13
2023-03-06T02:30:35.150Z,6.70
2023-03-06T02:33:37.062Z,8.88
2023-03-06T02:36:44.432Z,5.37
2023-03-06T02:39:54.958Z,6.72
2023-03-06T02:42:58.549Z,7.63
2023-03-06T02:46:01.152Z,9.30
2023-03-06T02:49:03.515Z,7.25
2023-03-06T02:52:06.980Z,5.07
2023-03-06T02:55:09.323Z,11.38
2023-03-06T02:58:11.255Z,9.73
2023-03-06T03:01:17.371Z,6.97
2023-03-06T03:04:19.693Z,7.20
2023-03-06T03:07:21.905Z,7.43
2023-03-06T03:10:24.272Z,8.80
2023-03-06T03:13:26.770Z,11.27
2023-03-06T03:16:28.662Z,8.55
2023-03-06T03:19:30.760Z,9.30
2023-03-06T03:22:33.397Z,8.33
2023-03-06T03:25:37.482Z,8.48
2023-03-06T03:28:39.590Z,7.53
2023-03-06T03:31:41.916Z,7.10
2023-03-06T03:34:46.550Z,8.77
2023-03-06T03:37:48.570Z,9.23
2023-03-06T03:40:52.165Z,8.75
2023-03-06T03:43:54.319Z,5.88
2023-03-06T03:46:56.208Z,6.80
2023-03-06T03:49:58.056Z,8.35
2023-03-06T03:53:04.563Z,8.40
2023-03-06T03:56:08.924Z,8.30
2023-03-06T03:59:11.232Z,9.43
2023-03-06T04:02:14.605Z,9.63
2023-03-06T04:05:16.917Z,8.45
2023-03-06T04:08:21.214Z,7.80
2023-03-06T04:11:23.629Z,9.02
2023-03-06T04:14:28.605Z,8.43
2023-03-06T04:17:30.801Z,11.30
2023-03-06T04:20:32.960Z,11.57
2023-03-06T04:23:35.165Z,10.63
2023-03-06T04:26:37.624Z,8.50
2023-03-06T04:29:39.875Z,10.45
2023-03-06T04:32:41.883Z,10.07
2023-03-06T04:35:44.032Z,8.45
2023-03-06T04:38:46.093Z,8.30
2023-03-06T04:41:48.364Z,9.40
2023-03-06T04:44:50.526Z,11.18
2023-03-06T04:47:52.659Z,11.30
2023-03-06T04:50:55.739Z,9.07
2023-03-06T04:53:58.792Z,10.07
2023-03-06T04:57:01.113Z,8.98
2023-03-06T05:00:06.692Z,10.30
2023-03-06T05:03:09.145Z,11.63
2023-03-06T05:06:11.149Z,9.95
2023-03-06T05:09:13.148Z,10.17
2023-03-06T05:12:15.375Z,12.95
2023-03-06T05:15:18.092Z,9.20
2023-03-06T05:18:21.625Z,11.50
2023-03-06T05:21:23.697Z,10.10
2023-03-06T05:24:26.119Z,11.07
2023-03-06T05:27:28.979Z,11.77
2023-03-06T05:30:30.931Z,10.52
2023-03-06T05:33:35.366Z,11.45
2023-03-06T05:36:37.736Z,10.60
2023-03-06T05:39:39.754Z,11.37
2023-03-06T05:42:42.157Z,13.00
2023-03-06T05:45:44.689Z,11.15
2023-03-06T05:48:47.238Z,15.00
2023-03-06T05:51:49.822Z,12.02
2023-03-06T05:54:53.966Z,11.73
2023-03-06T05:57:56.282Z,10.02
2023-03-06T06:00:58.561Z,11.68
2023-03-06T06:04:02.268Z,10.50
2023-03-06T06:07:06.070Z,14.95
2023-03-06T06:10:08.972Z,12.53
2023-03-06T06:13:11.036Z,11.23
2023-03-06T06:16:19.335Z,13.07
2023-03-06T06:19:23.231Z,12.02
2023-03-06T06:22:25.348Z,13.43
2023-03-06T06:25:29.227Z,10.23
2023-03-06T06:28:32.374Z,10.10
2023-03-06T06:31:37.680Z,11.70
2023-03-06T06:34:39.688Z,14.63
2023-03-06T06:37:41.879Z,13.73
2023-03-06T06:40:44.787Z,15.93
2023-03-06T06:43:51.288Z,10.38
2023-03-06T06:50:18.349Z,9.98
2023-03-06T06:53:20.878Z,11.07
2023-03-06T06:56:23.565Z,12.40
2023-03-06T07:03:40.040Z,10.93
2023-03-06T07:11:01.659Z,17.52
2023-03-06T07:18:51.459Z,13.20
2023-03-06T07:21:59.404Z,12.00
2023-03-06T07:26:05.307Z,13.90
2023-03-06T07:29:13.192Z,13.20
2023-03-06T07:32:19.105Z,12.33
2023-03-06T07:35:28.595Z,13.02
2023-03-06T07:38:36.929Z,11.52
2023-03-06T07:41:43.699Z,9.27
2023-03-06T07:44:55.363Z,12.18
2023-03-06T07:48:01.609Z,20.13
2023-03-06T07:51:07.788Z,15.63
2023-03-06T07:54:21.248Z,11.90
2023-03-06T07:57:35.495Z,11.27
2023-03-06T08:31:41.947Z,14.27
2023-03-06T08:34:46.185Z,11.53
2023-03-06T08:37:48.960Z,12.15
2023-03-06T08:40:52.865Z,11.98
2023-03-06T08:43:55.842Z,13.13
2023-03-06T08:47:01.074Z,15.10
2023-03-06T08:50:10.325Z,14.13
2023-03-06T08:53:13.343Z,13.20
2023-03-06T08:56:29.201Z,12.63
2023-03-06T08:59:39.162Z,19.50
2023-03-06T09:10:29.828Z,12.95
2023-03-06T09:13:35.210Z,15.98
2023-03-06T09:16:58.184Z,14.73
2023-03-06T09:20:25.612Z,17.17
2023-03-06T09:23:37.651Z,11.03
2023-03-06T09:26:49.353Z,18.92
2023-03-06T09:30:05.836Z,17.17
2023-03-06T09:33:12.302Z,14.20
2023-03-06T09:36:20.950Z,15.30
2023-03-06T09:39:26.906Z,16.73
2023-03-06T09:42:36.214Z,14.50
2023-03-06T09:45:43.522Z,16.50
2023-03-06T09:49:18.222Z,13.32
2023-03-06T09:53:04.299Z,14.82
2023-03-06T09:56:19.987Z,13.50
2023-03-06T09:59:32.063Z,16.92
2023-03-06T10:02:53.283Z,16.00
2023-03-06T10:07:06.228Z,13.93
2023-03-06T10:10:47.709Z,16.27
2023-03-06T10:14:33.653Z,15.67
2023-03-06T10:17:55.036Z,15.23
2023-03-06T10:21:18.711Z,14.52
2023-03-06T10:24:52.352Z,14.15
2023-03-06T10:28:17.343Z,15.02
2023-03-06T10:31:27.402Z,15.97
2023-03-06T10:34:36.973Z,15.63
2023-03-06T10:37:42.301Z,18.85
2023-03-06T10:41:27.773Z,15.38
2023-03-06T10:44:32.453Z,15.68
2023-03-06T10:47:36.337Z,15.13
2023-03-06T10:50:39.600Z,17.20
2023-03-06T10:54:20.433Z,13.85
2023-03-06T10:57:32.285Z,18.58
2023-03-06T11:01:56.333Z,17.42
2023-03-06T11:10:44.283Z,13.10
2023-03-06T11:23:42.882Z,16.20
2023-03-06T11:27:12.130Z,17.20
2023-03-06T11:30:22.681Z,17.65
2023-03-06T11:33:46.874Z,16.08
2023-03-06T11:37:10.574Z,18.73
2023-03-06T11:40:43.444Z,16.75
2023-03-06T11:44:15.661Z,20.73
2023-03-06T11:47:37.844Z,16.60
2023-03-06T11:50:48.743Z,18.77
2023-03-06T11:53:53.800Z,16.40
2023-03-06T11:57:14.946Z,17.33
2023-03-06T12:00:58.263Z,17.70
2023-03-06T12:04:14.257Z,15.23
2023-03-06T12:07:49.613Z,16.42
2023-03-06T12:11:03.345Z,14.70
2023-03-06T12:18:38.987Z,19.17
2023-03-06T12:23:14.830Z,15.88
2023-03-06T12:26:41.851Z,17.15
2023-03-06T12:34:08.999Z,16.02
2023-03-06T12:37:12.070Z,17.67
2023-03-06T12:40:26.658Z,18.63
2023-03-06T12:44:20.329Z,17.70
2023-03-06T12:47:28.418Z,16.33
2023-03-06T12:50:38.367Z,17.20
2023-03-06T12:53:55.350Z,18.63
2023-03-06T12:56:59.524Z,16.90
2023-03-06T13:00:02.468Z,17.40
2023-03-06T13:03:35.351Z,24.98
2023-03-06T13:07:06.063Z,17.75
2023-03-06T13:10:20.566Z,18.10
2023-03-06T13:14:03.311Z,19.02
2023-03-06T13:17:36.158Z,20.02
2023-03-06T13:21:54.725Z,17.48
2023-03-06T13:25:26.184Z,16.65
2023-03-06T13:28:53.145Z,18.37
2023-03-06T13:32:04.621Z,21.67
2023-03-06T13:35:33.766Z,17.75
2023-03-06T13:38:40.946Z,13.88
2023-03-06T13:42:05.575Z,21.30
2023-03-06T13:45:24.173Z,18.53
2023-03-06T13:48:45.506Z,21.50
2023-03-06T13:51:54.805Z,21.15
2023-03-06T13:55:19.153Z,22.00
2023-03-06T13:59:07.051Z,19.90
2023-03-06T14:02:55.000Z,22.40
2023-03-06T14:05:59.433Z,21.48
2023-03-06T14:09:06.429Z,18.55
2023-03-06T14:12:27.772Z,24.10
2023-03-06T14:15:55.123Z,20.30
2023-03-06T14:19:03.929Z,22.33
2023-03-06T14:22:13.356Z,24.13
2023-03-06T14:25:18.958Z,20.33
2023-03-06T14:32:05.047Z,21.23
2023-03-06T14:35:19.101Z,15.63
2023-03-06T14:38:22.529Z,18.10
2023-03-06T14:41:28.370Z,17.40
2023-03-06T14:44:30.830Z,26.02
2023-03-06T14:47:37.897Z,16.08
2023-03-06T14:50:41.074Z,12.70
2023-03-06T14:53:45.823Z,23.70
2023-03-06T14:56:53.672Z,15.00
2023-03-06T15:00:00.395Z,19.20
2023-03-06T15:03:10.208Z,19.83
2023-03-06T15:06:32.020Z,28.00
2023-03-06T15:09:39.349Z,24.83
2023-03-06T15:12:41.994Z,19.73
2023-03-06T15:16:09.673Z,24.63
2023-03-06T15:19:42.889Z,21.95
2023-03-06T15:22:59.887Z,22.70
2023-03-06T15:26:28.727Z,20.60
2023-03-06T15:29:40.527Z,26.23
2023-03-06T15:32:44.146Z,18.80
2023-03-06T15:36:05.446Z,17.73
2023-03-06T15:39:45.971Z,24.33
2023-03-06T15:42:51.045Z,21.08
2023-03-06T15:46:00.250Z,12.52
2023-03-06T15:49:05.406Z,16.60
2023-03-06T15:52:10.377Z,22.23
2023-03-06T15:55:17.276Z,23.23
2023-03-06T15:58:30.895Z,16.50
2023-03-06T16:01:43.581Z,20.30
2023-03-06T16:04:47.069Z,18.65
2023-03-06T16:07:49.995Z,23.38
2023-03-06T16:10:52.894Z,14.03
2023-03-06T16:13:58.257Z,17.35
2023-03-06T16:17:03.860Z,19.30
2023-03-06T16:20:11.140Z,17.02
2023-03-06T16:23:15.528Z,21.65
2023-03-06T16:26:44.900Z,18.37
2023-03-06T16:29:51.618Z,16.92
2023-03-06T16:32:54.178Z,19.58
2023-03-06T16:35:56.619Z,13.57
2023-03-06T16:39:00.794Z,13.98
2023-03-06T16:42:03.442Z,13.00
2023-03-06T16:45:09.523Z,22.75
2023-03-06T16:48:16.001Z,15.23
2023-03-06T16:51:23.726Z,14.30
2023-03-06T16:54:26.618Z,20.88
2023-03-06T16:57:36.334Z,19.77
2023-03-06T17:00:39.940Z,16.13
2023-03-06T17:03:42.707Z,17.13
2023-03-06T17:06:46.056Z,20.50
2023-03-06T17:09:48.125Z,13.70
2023-03-06T17:12:50.580Z,23.20
2023-03-06T17:15:59.507Z,15.73
2023-03-06T17:19:02.758Z,16.30
2023-03-06T17:22:05.123Z,14.43
2023-03-06T17:25:10.600Z,18.48
2023-03-06T17:28:13.523Z,19.00
2023-03-06T17:31:21.504Z,22.52
2023-03-06T17:34:24.683Z,22.88
2023-03-06T17:37:26.862Z,19.13
2023-03-06T17:40:30.458Z,21.73
2023-03-06T17:43:33.238Z,16.00
2023-03-06T17:46:35.444Z,24.70
2023-03-06T17:49:42.865Z,22.08
2023-03-06T17:52:46.009Z,24.45
2023-03-06T17:55:51.550Z,23.92
2023-03-06T17:58:55.527Z,22.13
2023-03-06T18:01:59.039Z,23.65
2023-03-06T18:05:02.858Z,16.73
2023-03-06T18:08:08.650Z,27.00
2023-03-06T18:11:12.419Z,21.13
2023-03-06T18:14:15.568Z,20.07
2023-03-06T18:17:18.811Z,23.85
2023-03-06T18:20:21.550Z,22.27
2023-03-06T18:23:24.379Z,15.10
2023-03-06T18:26:29.507Z,19.27
2023-03-06T18:29:34.877Z,20.73
2023-03-06T18:32:37.147Z,21.20
2023-03-06T18:35:44.418Z,23.20
2023-03-06T18:38:48.149Z,19.38
2023-03-06T18:41:50.711Z,19.55
2023-03-06T18:44:54.805Z,20.73
2023-03-06T18:47:57.336Z,20.67
2023-03-06T18:51:08.223Z,13.85
2023-03-06T18:54:12.224Z,21.80
2023-03-06T18:57:14.940Z,24.17
2023-03-06T19:00:17.850Z,21.03
2023-03-06T19:03:21.037Z,20.67
2023-03-06T19:06:24.582Z,23.45
2023-03-06T19:09:28.122Z,24.48
2023-03-06T19:12:33.030Z,24.65
2023-03-06T19:15:48.521Z,25.60
2023-03-06T19:18:52.259Z,25.95
2023-03-06T19:21:57.091Z,29.90
2023-03-06T19:24:59.975Z,25.77
2023-03-06T19:28:03.350Z,29.52
2023-03-06T19:31:14.824Z,23.30
2023-03-06T19:34:17.192Z,21.77
2023-03-06T19:37:19.823Z,25.27
2023-03-06T19:40:24.239Z,26.95
2023-03-06T19:43:28.660Z,24.70
2023-03-06T19:46:33.042Z,30.80
2023-03-06T19:49:36.374Z,26.13
2023-03-06T19:52:39.249Z,23.70
2023-03-06T19:55:43.236Z,27.40
2023-03-06T19:58:45.286Z,24.42
2023-03-06T20:01:47.570Z,23.07
2023-03-06T20:04:50.419Z,27.90
2023-03-06T20:07:53.351Z,27.90
2023-03-06T20:10:56.121Z,28.80
2023-03-06T20:13:59.995Z,30.20
2023-03-06T20:17:02.511Z,31.87
2023-03-06T20:20:09.721Z,27.23
2023-03-06T20:23:12.606Z,29.88
2023-03-06T20:26:15.380Z,26.70
2023-03-06T20:29:18.995Z,29.48
2023-03-06T20:32:22.607Z,27.00
2023-03-06T20:35:26.679Z,27.92
2023-03-06T20:38:29.417Z,30.35
2023-03-06T20:41:32.802Z,25.00
2023-03-06T20:44:37.094Z,26.35
2023-03-06T20:47:39.688Z,23.83
2023-03-06T20:50:43.744Z,28.42
2023-03-06T20:53:48.148Z,30.63
2023-03-06T20:56:50.842Z,23.15
2023-03-06T20:59:55.911Z,27.95
2023-03-06T21:02:58.165Z,28.43
2023-03-06T21:06:00.533Z,25.30
2023-03-06T21:09:05.458Z,31.40
2023-03-06T21:12:07.848Z,30.00
2023-03-06T21:15:10.827Z,25.83
2023-03-06T21:18:13.334Z,29.03
2023-03-06T21:21:18.689Z,27.02
2023-03-06T21:24:21.437Z,31.58
2023-03-06T21:27:23.693Z,27.20
2023-03-06T21:30:29.769Z,23.70
2023-03-06T21:33:32.095Z,23.23
2023-03-06T21:36:34.524Z,26.48
2023-03-06T21:39:36.838Z,25.58
2023-03-06T21:42:39.163Z,28.73
2023-03-06T21:45:46.227Z,27.15
2023-03-06T21:48:48.889Z,23.70
2023-03-06T21:51:51.705Z,27.33
2023-03-06T21:54:53.703Z,28.77
2023-03-06T21:57:56.474Z,27.95
2023-03-06T22:00:58.835Z,25.13
2023-03-06T22:04:01.401Z,27.53
2023-03-06T22:07:03.727Z,25.75
2023-03-06T22:10:07.503Z,25.52
2023-03-06T22:13:09.875Z,28.85
2023-03-06T22:16:12.948Z,30.38
2023-03-06T22:19:15.836Z,26.10
2023-03-06T22:22:20.007Z,28.02
2023-03-06T22:25:22.135Z,28.23
2023-03-06T22:28:24.648Z,28.90
2023-03-06T22:31:29.237Z,29.30
2023-03-06T22:34:32.039Z,31.90
2023-03-06T22:37:34.316Z,28.40
2023-03-06T22:40:36.467Z,29.10
2023-03-06T22:43:39.062Z,29.73
2023-03-06T22:46:41.897Z,38.40
2023-03-06T22:49:44.356Z,27.13
2023-03-06T22:52:49.390Z,27.58
2023-03-06T22:55:51.722Z,28.00
2023-03-06T22:58:53.892Z,28.42
2023-03-06T23:01:57.077Z,27.50
2023-03-06T23:04:59.537Z,29.53
2023-03-06T23:08:01.659Z,36.22
2023-03-06T23:11:10.184Z,30.35
2023-03-06T23:14:12.859Z,31.63
2023-03-06T23:17:14.906Z,31.40
2023-03-06T23:20:17.770Z,30.10
2023-03-06T23:23:22.246Z,29.13
2023-03-06T23:26:27.880Z,33.90
2023-03-06T23:29:29.970Z,30.42
2023-03-06T23:32:33.808Z,29.85
2023-03-06T23:35:38.078Z,29.83
2023-03-06T23:38:44.392Z,29.48
2023-03-06T23:41:46.953Z,27.15
2023-03-06T23:44:49.237Z,32.10
2023-03-06T23:47:51.580Z,30.30
2023-03-06T23:50:54.145Z,32.47
2023-03-06T23:53:58.854Z,33.55
2023-03-06T23:57:01.149Z,31.25
